createdAt,value
2023-11-12T00:00:50.042Z,100.00
2023-11-12T00:03:18.047Z,99.38
2023-11-12T00:05:45.727Z,100.00
2023-11-12T00:08:13.425Z,100.00
2023-11-12T00:10:41.462Z,98.28
2023-11-12T00:13:09.848Z,97.93
2023-11-12T00:15:37.485Z,100.00
2023-11-12T00:18:05.422Z,98.23
2023-11-12T00:20:33.090Z,96.49
2023-11-12T04:10:39.322Z,99.65
2023-11-12T04:13:07.750Z,100.00
2023-11-12T04:15:36.196Z,100.00
2023-11-12T04:18:04.000Z,100.00
2023-11-12T04:20:33.526Z,100.00
2023-11-12T04:23:01.104Z,100.00
2023-11-12T04:25:28.639Z,100.00
2023-11-12T04:27:56.526Z,100.00
2023-11-12T04:30:24.082Z,100.00
2023-11-12T04:32:51.755Z,100.00
2023-11-12T04:35:20.580Z,100.00
2023-11-12T04:37:48.163Z,100.00
2023-11-12T04:40:17.936Z,100.00
2023-11-12T04:42:45.943Z,100.00
2023-11-12T04:45:13.530Z,100.00
2023-11-12T04:47:41.470Z,100.00
2023-11-12T04:50:10.001Z,100.00
2023-11-12T04:52:37.536Z,100.00
2023-11-12T04:55:05.538Z,100.00
2023-11-12T04:57:33.409Z,100.00
2023-11-12T05:00:01.332Z,100.00
2023-11-12T05:02:28.906Z,100.00
2023-11-12T05:04:56.760Z,100.00
2023-11-12T05:07:24.832Z,100.00
2023-11-12T05:09:52.410Z,100.00
2023-11-12T05:12:22.259Z,100.00
2023-11-12T05:14:49.929Z,100.00
2023-11-12T05:17:17.422Z,100.00
2023-11-12T05:19:45.248Z,100.00
2023-11-12T05:22:12.774Z,100.00
2023-11-12T05:24:40.508Z,100.00
2023-11-12T05:27:08.354Z,100.00
2023-11-12T05:29:35.929Z,100.00
2023-11-12T05:32:05.037Z,100.00
2023-11-12T05:34:32.854Z,100.00
2023-11-12T05:37:00.402Z,100.00
2023-11-12T05:39:27.968Z,100.00
2023-11-12T05:41:55.842Z,100.00
2023-11-12T05:44:23.343Z,100.00
2023-11-12T05:46:50.860Z,100.00
2023-11-12T05:49:18.707Z,100.00
2023-11-12T05:51:46.324Z,100.00
2023-11-12T05:54:16.607Z,100.00
2023-11-12T05:56:45.900Z,100.00
2023-11-12T05:59:13.486Z,100.00
2023-11-12T06:01:41.120Z,100.00
2023-11-12T06:04:09.311Z,100.00
2023-11-12T06:06:36.985Z,100.00
2023-11-12T06:09:04.522Z,100.00
2023-11-12T06:11:32.531Z,100.00
2023-11-12T06:14:00.061Z,100.00
2023-11-12T06:16:27.577Z,100.00
2023-11-12T06:18:55.494Z,100.00
2023-11-12T06:21:23.151Z,100.00
2023-11-12T06:23:50.740Z,100.00
2023-11-12T06:26:22.135Z,100.00
2023-11-12T06:28:50.468Z,100.00
2023-11-12T06:31:18.373Z,100.00
2023-11-12T06:33:45.996Z,100.00
2023-11-12T06:36:15.313Z,100.00
2023-11-12T06:38:43.876Z,100.00
2023-11-12T06:41:11.567Z,100.00
2023-11-12T06:43:39.464Z,100.00
2023-11-12T06:46:08.778Z,100.00
2023-11-12T06:48:36.500Z,100.00
2023-11-12T06:51:04.471Z,100.00
2023-11-12T06:53:32.355Z,100.00
2023-11-12T06:55:59.957Z,100.00
2023-11-12T06:58:27.467Z,100.00
2023-11-12T07:00:55.825Z,100.00
2023-11-12T07:03:23.622Z,100.00
2023-11-12T07:05:51.709Z,100.00
2023-11-12T07:08:20.535Z,100.00
2023-11-12T07:10:48.099Z,100.00
2023-11-12T07:13:17.120Z,100.00
2023-11-12T07:15:45.246Z,100.00
2023-11-12T07:18:13.025Z,100.00
2023-11-12T07:20:40.616Z,100.00
2023-11-12T07:23:08.484Z,100.00
2023-11-12T07:25:36.121Z,100.00
2023-11-12T07:28:03.779Z,100.00
2023-11-12T07:30:32.594Z,99.86
2023-11-12T07:33:00.253Z,98.45
2023-11-12T07:35:27.945Z,99.59
2023-11-12T07:37:55.687Z,99.99
2023-11-12T07:40:24.361Z,100.00
2023-11-12T07:42:51.913Z,94.62
2023-11-12T07:45:25.389Z,97.80
2023-11-12T07:47:55.620Z,99.01
2023-11-12T07:50:23.454Z,96.59
2023-11-12T07:52:50.986Z,95.90
2023-11-12T07:55:19.004Z,93.05
2023-11-12T07:57:47.068Z,94.70
2023-11-12T08:00:14.992Z,94.28
2023-11-12T08:02:43.035Z,93.12
2023-11-12T08:05:11.416Z,93.47
2023-11-12T08:07:38.987Z,92.47
2023-11-12T08:10:09.601Z,91.86
2023-11-12T08:12:39.262Z,91.35
2023-11-12T08:15:14.009Z,92.31
2023-11-12T08:17:42.380Z,88.10
2023-11-12T08:20:11.946Z,92.08
2023-11-12T08:22:39.578Z,88.00
2023-11-12T08:25:07.930Z,89.01
2023-11-12T08:27:36.506Z,87.21
2023-11-12T08:30:05.269Z,87.86
2023-11-12T08:32:33.064Z,88.21
2023-11-12T08:35:01.063Z,86.50
2023-11-12T08:37:28.766Z,83.09
2023-11-12T08:39:56.453Z,82.01
2023-11-12T08:42:25.344Z,84.44
2023-11-12T08:44:55.748Z,81.61
2023-11-12T08:47:24.253Z,81.60
2023-11-12T08:49:52.359Z,82.67
2023-11-12T08:52:19.919Z,84.85
2023-11-12T08:54:47.436Z,81.99
2023-11-12T08:57:15.407Z,82.65
2023-11-12T08:59:42.873Z,83.74
2023-11-12T09:02:10.584Z,82.15
2023-11-12T09:04:39.324Z,82.28
2023-11-12T09:07:08.408Z,82.77
2023-11-12T09:09:35.973Z,80.30
2023-11-12T09:12:05.300Z,79.12
2023-11-12T09:14:33.054Z,81.29
2023-11-12T09:17:00.602Z,80.89
2023-11-12T09:19:28.481Z,81.73
2023-11-12T09:21:56.074Z,78.54
2023-11-12T09:24:23.709Z,80.28
2023-11-12T09:26:51.943Z,79.56
2023-11-12T09:29:19.975Z,79.55
2023-11-12T09:31:47.509Z,81.26
2023-11-12T09:34:15.346Z,83.42
2023-11-12T09:36:42.998Z,78.30
2023-11-12T09:39:14.232Z,78.30
2023-11-12T09:41:47.947Z,78.62
2023-11-12T09:44:19.016Z,78.58
2023-11-12T09:47:04.150Z,79.61
2023-11-12T09:49:33.477Z,77.71
2023-11-12T09:52:01.827Z,78.01
2023-11-12T09:54:29.502Z,78.09
2023-11-12T09:57:08.308Z,78.30
2023-11-12T09:59:37.869Z,75.89
2023-11-12T10:02:09.273Z,78.68
2023-11-12T10:04:37.539Z,80.40
2023-11-12T10:07:05.437Z,76.65
2023-11-12T10:09:33.426Z,74.58
2023-11-12T10:12:05.367Z,78.07
2023-11-12T10:14:33.610Z,77.33
2023-11-12T10:17:06.716Z,74.24
2023-11-12T10:19:38.796Z,74.85
2023-11-12T10:22:10.656Z,74.48
2023-11-12T10:24:45.898Z,74.90
2023-11-12T10:27:15.591Z,73.01
2023-11-12T10:29:44.556Z,76.08
2023-11-12T10:32:28.513Z,71.09
2023-11-12T10:34:56.674Z,71.71
2023-11-12T10:37:24.456Z,74.47
2023-11-12T10:39:52.258Z,72.66
2023-11-12T10:42:27.847Z,73.59
2023-11-12T10:44:58.474Z,74.13
2023-11-12T10:47:28.329Z,71.83
2023-11-12T10:49:56.758Z,71.79
2023-11-12T10:52:24.658Z,69.60
2023-11-12T10:54:55.193Z,69.81
2023-11-12T10:57:24.921Z,69.59
2023-11-12T10:59:54.778Z,66.57
2023-11-12T11:02:31.037Z,68.15
2023-11-12T11:05:00.039Z,70.15
2023-11-12T11:07:27.572Z,69.96
2023-11-12T11:09:55.209Z,68.57
2023-11-12T11:12:23.830Z,69.65
2023-11-12T11:14:51.386Z,68.06
2023-11-12T11:17:48.809Z,73.08
2023-11-12T11:20:17.852Z,69.42
2023-11-12T11:22:45.785Z,66.73
2023-11-12T11:25:26.182Z,68.49
2023-11-12T11:28:35.689Z,69.54
2023-11-12T11:31:11.125Z,69.57
2023-11-12T11:33:49.452Z,67.29
2023-11-12T11:36:24.049Z,71.03
2023-11-12T11:39:14.286Z,64.59
2023-11-12T11:41:53.544Z,66.87
2023-11-12T11:44:40.159Z,66.02
2023-11-12T11:47:15.371Z,64.47
2023-11-12T11:49:47.276Z,65.80
2023-11-12T11:52:23.458Z,63.66
2023-11-12T11:54:58.446Z,65.65
2023-11-12T11:57:28.359Z,64.99
2023-11-12T11:59:58.289Z,65.60
2023-11-12T12:02:26.533Z,62.31
2023-11-12T12:04:59.252Z,63.53
2023-11-12T12:07:31.162Z,62.97
2023-11-12T12:10:01.698Z,62.64
2023-11-12T12:12:30.509Z,63.62
2023-11-12T12:14:58.128Z,62.86
2023-11-12T12:17:25.918Z,62.33
2023-11-12T12:19:57.123Z,62.49
2023-11-12T12:22:28.961Z,61.93
2023-11-12T12:24:59.476Z,67.12
2023-11-12T12:27:27.422Z,61.07
2023-11-12T12:29:56.271Z,60.71
2023-11-12T12:32:24.450Z,59.96
2023-11-12T12:34:58.792Z,59.98
2023-11-12T12:37:29.520Z,64.79
2023-11-12T12:40:05.542Z,61.44
2023-11-12T12:42:35.492Z,62.00
2023-11-12T12:45:11.841Z,60.43
2023-11-12T12:47:45.401Z,59.85
2023-11-12T12:50:14.570Z,60.24
2023-11-12T12:52:46.686Z,60.29
2023-11-12T12:55:19.844Z,60.78
2023-11-12T12:57:52.192Z,57.96
2023-11-12T13:00:24.197Z,58.22
2023-11-12T13:02:53.224Z,60.38
2023-11-12T13:05:23.026Z,63.98
2023-11-12T13:07:52.622Z,60.54
2023-11-12T13:10:23.820Z,58.55
2023-11-12T13:12:55.936Z,60.06
2023-11-12T13:15:26.464Z,60.51
2023-11-12T13:17:54.478Z,60.97
2023-11-12T13:20:25.833Z,62.99
2023-11-12T13:22:53.836Z,65.07
2023-11-12T13:25:21.307Z,64.01
2023-11-12T13:27:50.599Z,65.43
2023-11-12T13:30:18.616Z,66.57
2023-11-12T13:32:47.932Z,66.77
2023-11-12T13:35:16.878Z,63.84
2023-11-12T13:37:46.536Z,64.59
2023-11-12T13:40:16.677Z,64.53
2023-11-12T13:42:45.720Z,65.99
2023-11-12T13:45:15.205Z,68.14
2023-11-12T13:47:43.728Z,67.27
2023-11-12T13:50:12.787Z,67.54
2023-11-12T13:52:41.877Z,67.79
2023-11-12T13:55:19.057Z,67.49
2023-11-12T13:57:48.745Z,68.20
2023-11-12T14:00:18.718Z,64.55
2023-11-12T14:02:46.818Z,64.70
2023-11-12T14:05:14.912Z,68.96
2023-11-12T14:07:42.884Z,67.92
2023-11-12T14:10:12.094Z,67.97
2023-11-12T14:12:40.186Z,68.78
2023-11-12T14:15:11.314Z,66.63
2023-11-12T14:17:39.271Z,70.48
2023-11-12T14:20:08.091Z,67.92
2023-11-12T14:22:36.127Z,68.88
2023-11-12T14:25:09.299Z,70.92
2023-11-12T14:27:39.227Z,68.07
2023-11-12T14:30:09.243Z,69.93
2023-11-12T14:32:36.828Z,68.66
2023-11-12T14:35:04.673Z,70.25
2023-11-12T14:37:32.530Z,69.04
2023-11-12T14:40:01.027Z,69.14
2023-11-12T14:42:31.277Z,69.75
2023-11-12T14:44:59.690Z,70.09
2023-11-12T14:47:27.243Z,70.87
2023-11-12T14:49:54.805Z,71.51
2023-11-12T14:52:24.576Z,71.81
2023-11-12T14:54:52.100Z,73.12
2023-11-12T14:57:19.887Z,76.67
2023-11-12T14:59:48.127Z,76.89
2023-11-12T15:02:15.830Z,78.58
2023-11-12T15:04:43.553Z,78.32
2023-11-12T15:07:11.565Z,79.34
2023-11-12T15:09:41.739Z,78.69
2023-11-12T15:12:10.145Z,79.16
2023-11-12T15:14:37.966Z,79.21
2023-11-12T15:17:05.865Z,78.59
2023-11-12T15:19:33.468Z,78.11
2023-11-12T15:22:01.306Z,76.97
2023-11-12T15:24:29.646Z,77.02
2023-11-12T15:26:58.443Z,76.98
2023-11-12T15:29:26.283Z,77.99
2023-11-12T15:31:53.930Z,78.84
2023-11-12T15:34:21.708Z,79.44
2023-11-12T15:36:51.096Z,81.34
2023-11-12T15:39:21.146Z,80.14
2023-11-12T15:41:49.120Z,81.76
2023-11-12T15:44:17.147Z,82.52
2023-11-12T15:46:44.910Z,83.02
2023-11-12T15:49:12.895Z,82.95
2023-11-12T15:51:40.446Z,85.62
2023-11-12T15:54:07.963Z,84.57
2023-11-12T15:56:37.042Z,84.96
2023-11-12T15:59:04.614Z,84.14
2023-11-12T16:01:34.296Z,89.12
2023-11-12T16:04:06.310Z,87.68
2023-11-12T16:06:34.207Z,88.01
2023-11-12T16:09:02.687Z,87.66
2023-11-12T16:11:34.173Z,88.59
2023-11-12T16:14:02.224Z,89.16
2023-11-12T16:16:30.818Z,88.43
2023-11-12T16:18:58.453Z,90.15
2023-11-12T16:21:26.309Z,89.08
2023-11-12T16:23:53.905Z,89.67
2023-11-12T16:26:21.440Z,90.97
2023-11-12T16:28:49.566Z,89.84
2023-11-12T16:31:17.356Z,89.17
2023-11-12T16:33:45.046Z,89.73
2023-11-12T16:36:13.494Z,88.32
2023-11-12T16:38:42.223Z,88.41
2023-11-12T16:41:09.837Z,89.39
2023-11-12T16:43:37.681Z,90.03
2023-11-12T16:46:05.274Z,93.36
2023-11-12T16:48:32.947Z,92.18
2023-11-12T16:51:00.823Z,91.37
2023-11-12T16:53:28.464Z,91.84
2023-11-12T16:55:56.336Z,92.26
2023-11-12T16:58:24.532Z,91.58
2023-11-12T17:00:52.789Z,91.48
2023-11-12T17:03:21.292Z,90.80
2023-11-12T17:05:49.774Z,92.34
2023-11-12T17:08:17.293Z,95.69
2023-11-12T17:10:46.858Z,93.72
2023-11-12T17:13:14.731Z,92.54
2023-11-12T17:15:42.643Z,96.16
2023-11-12T17:18:10.608Z,97.93
2023-11-12T17:20:39.851Z,97.52
2023-11-12T17:23:08.788Z,97.47
2023-11-12T17:25:36.544Z,97.21
2023-11-12T17:28:05.306Z,95.47
2023-11-12T17:30:35.661Z,94.67
2023-11-12T17:33:04.045Z,94.04
2023-11-12T17:35:34.144Z,94.38
2023-11-12T17:38:01.936Z,93.79
2023-11-12T17:40:29.615Z,93.58
2023-11-12T17:42:57.589Z,95.63
2023-11-12T17:45:25.213Z,95.56
2023-11-12T17:47:52.999Z,96.77
2023-11-12T17:50:21.223Z,99.99
2023-11-12T17:52:48.772Z,98.33
2023-11-12T17:55:16.768Z,99.04
2023-11-12T17:57:44.996Z,99.86
2023-11-12T18:00:14.122Z,100.00
2023-11-12T18:02:42.748Z,99.13
2023-11-12T18:05:11.141Z,100.00
2023-11-12T18:07:40.490Z,100.00
2023-11-12T18:10:13.224Z,100.00
2023-11-12T18:12:42.662Z,100.00
2023-11-12T18:15:14.388Z,100.00
2023-11-12T18:17:42.701Z,100.00
2023-11-12T18:20:11.378Z,100.00
2023-11-12T18:22:39.980Z,100.00
2023-11-12T18:25:07.966Z,100.00
2023-11-12T18:27:36.539Z,100.00
2023-11-12T18:30:07.507Z,100.00
2023-11-12T18:32:37.299Z,100.00
2023-11-12T18:35:07.228Z,100.00
2023-11-12T18:37:35.424Z,100.00
2023-11-12T18:40:04.509Z,100.00
2023-11-12T18:42:32.545Z,100.00
2023-11-12T18:45:00.284Z,100.00
2023-11-12T18:47:29.076Z,100.00
2023-11-12T18:49:57.023Z,100.00
2023-11-12T18:52:24.742Z,100.00
2023-11-12T18:54:52.670Z,100.00
2023-11-12T18:57:20.831Z,100.00
2023-11-12T18:59:48.380Z,100.00
2023-11-12T19:02:16.109Z,100.00
2023-11-12T19:04:45.187Z,100.00
2023-11-12T19:07:16.066Z,100.00
2023-11-12T19:09:45.613Z,100.00
2023-11-12T19:12:14.297Z,100.00
2023-11-12T19:14:41.820Z,100.00
2023-11-12T19:17:09.976Z,100.00
2023-11-12T19:19:39.363Z,100.00
2023-11-12T19:22:07.264Z,100.00
2023-11-12T19:24:38.781Z,100.00
2023-11-12T19:27:07.873Z,100.00
2023-11-12T19:29:35.826Z,100.00
2023-11-12T19:32:05.241Z,100.00
2023-11-12T19:34:35.594Z,100.00
2023-11-12T19:37:04.150Z,100.00
2023-11-12T19:39:34.141Z,100.00
2023-11-12T19:42:02.006Z,100.00
2023-11-12T19:44:30.064Z,100.00
2023-11-12T19:46:59.308Z,100.00
2023-11-12T19:49:27.306Z,100.00
2023-11-12T19:51:55.197Z,100.00
2023-11-12T19:54:23.341Z,100.00
2023-11-12T19:56:52.055Z,100.00
2023-11-12T19:59:20.345Z,100.00
2023-11-12T20:01:48.285Z,100.00
2023-11-12T20:04:16.462Z,100.00
2023-11-12T20:06:44.423Z,100.00
2023-11-12T20:09:12.147Z,100.00
2023-11-12T20:11:40.790Z,100.00
2023-11-12T20:14:08.539Z,100.00
2023-11-12T20:16:36.970Z,100.00
2023-11-12T20:19:07.147Z,100.00
2023-11-12T20:21:41.285Z,100.00
2023-11-12T20:24:12.994Z,100.00
2023-11-12T20:26:48.129Z,100.00
2023-11-12T20:29:17.675Z,100.00
2023-11-12T20:31:45.516Z,100.00
2023-11-12T20:34:13.196Z,100.00
2023-11-12T20:36:42.860Z,100.00
2023-11-12T20:39:16.744Z,100.00
2023-11-12T20:41:46.368Z,100.00
2023-11-12T20:44:15.433Z,100.00
2023-11-12T20:46:47.621Z,100.00
2023-11-12T20:49:18.000Z,100.00
2023-11-12T20:51:50.132Z,100.00
2023-11-12T20:54:18.333Z,100.00
2023-11-12T20:56:46.037Z,100.00
2023-11-12T20:59:14.359Z,100.00
2023-11-12T21:01:44.024Z,100.00
2023-11-12T21:04:13.480Z,100.00
2023-11-12T21:06:44.245Z,100.00
2023-11-12T21:09:13.373Z,100.00
2023-11-12T21:11:46.938Z,100.00
2023-11-12T21:14:16.764Z,100.00
2023-11-12T21:16:44.655Z,100.00
2023-11-12T21:19:12.429Z,100.00
2023-11-12T21:21:40.492Z,100.00
2023-11-12T21:24:09.879Z,100.00
2023-11-12T21:26:39.004Z,100.00
2023-11-12T21:29:10.261Z,100.00
2023-11-12T21:31:39.085Z,100.00
2023-11-12T21:34:07.371Z,100.00
2023-11-12T21:36:34.890Z,100.00
2023-11-12T21:39:02.593Z,100.00
2023-11-12T21:41:31.059Z,100.00
2023-11-12T21:43:58.579Z,100.00
2023-11-12T21:46:28.072Z,100.00
2023-11-12T21:48:56.221Z,100.00
2023-11-12T21:51:24.328Z,100.00
2023-11-12T21:53:51.884Z,100.00
2023-11-12T21:56:19.773Z,100.00
2023-11-12T21:58:47.309Z,100.00
2023-11-12T22:01:15.022Z,100.00
2023-11-12T22:03:43.042Z,100.00
2023-11-12T22:06:11.805Z,100.00
2023-11-12T22:08:39.673Z,100.00
2023-11-12T22:11:07.456Z,100.00
2023-11-12T22:13:35.330Z,100.00
2023-11-12T22:16:02.982Z,100.00
2023-11-12T22:18:30.892Z,100.00
2023-11-12T22:20:58.995Z,100.00
2023-11-12T22:23:26.520Z,100.00
2023-11-12T22:25:54.539Z,100.00
2023-11-12T22:28:22.031Z,100.00
2023-11-12T22:30:50.286Z,100.00
2023-11-12T22:33:18.351Z,100.00
2023-11-12T22:35:45.879Z,100.00
2023-11-12T22:38:13.387Z,100.00
2023-11-12T22:40:41.278Z,100.00
2023-11-12T22:43:08.835Z,100.00
2023-11-12T22:45:37.312Z,100.00
2023-11-12T22:48:06.060Z,100.00
2023-11-12T22:50:33.648Z,100.00
2023-11-12T22:53:01.156Z,100.00
2023-11-12T22:55:28.986Z,100.00
2023-11-12T22:57:59.310Z,100.00
2023-11-12T23:00:46.348Z,100.00
2023-11-12T23:03:16.196Z,100.00
2023-11-12T23:05:44.894Z,100.00
2023-11-12T23:08:12.978Z,100.00
2023-11-12T23:10:46.183Z,100.00
2023-11-12T23:13:16.103Z,100.00
2023-11-12T23:15:45.683Z,100.00
2023-11-12T23:18:14.098Z,100.00
2023-11-12T23:20:44.352Z,100.00
2023-11-12T23:23:15.701Z,100.00
2023-11-12T23:25:43.271Z,100.00
2023-11-12T23:28:11.730Z,100.00
2023-11-12T23:30:40.501Z,100.00
2023-11-12T23:33:09.295Z,100.00
2023-11-12T23:35:37.075Z,100.00
2023-11-12T23:38:05.709Z,100.00
2023-11-12T23:40:33.246Z,100.00
2023-11-12T23:43:01.716Z,100.00
2023-11-12T23:45:29.742Z,100.00
2023-11-12T23:47:57.403Z,100.00
2023-11-12T23:50:26.960Z,100.00
2023-11-12T23:52:54.883Z,100.00
2023-11-12T23:55:23.432Z,100.00
2023-11-12T23:57:51.306Z,100.00
